sensor_id;sensor_type;location;lat;lon;timestamp;P1;durP1;ratioP1;P2;durP2;ratioP2
71183;SDS011;58887;51.980;4.464;2023-11-19T00:01:08;9.94;;;5.97;;
71183;SDS011;58887;51.980;4.464;2023-11-19T00:03:33;10.83;;;6.50;;
71183;SDS011;58887;51.980;4.464;2023-11-19T00:06:00;9.28;;;5.61;;
71183;SDS011;58887;51.980;4.464;2023-11-19T00:08:26;11.21;;;6.72;;
71183;SDS011;58887;51.980;4.464;2023-11-19T00:10:52;11.50;;;6.90;;
71183;SDS011;58887;51.980;4.464;2023-11-19T00:13:17;10.61;;;6.53;;
71183;SDS011;58887;51.980;4.464;2023-11-19T00:15:43;10.80;;;6.64;;
71183;SDS011;58887;51.980;4.464;2023-11-19T00:18:11;11.00;;;6.72;;
71183;SDS011;58887;51.980;4.464;2023-11-19T00:20:36;11.48;;;6.94;;
71183;SDS011;58887;51.980;4.464;2023-11-19T00:23:02;10.83;;;6.59;;
71183;SDS011;58887;51.980;4.464;2023-11-19T00:25:27;10.97;;;6.65;;
71183;SDS011;58887;51.980;4.464;2023-11-19T00:27:53;12.06;;;7.31;;
71183;SDS011;58887;51.980;4.464;2023-11-19T00:30:19;11.07;;;6.65;;
71183;SDS011;58887;51.980;4.464;2023-11-19T00:32:44;10.70;;;6.40;;
71183;SDS011;58887;51.980;4.464;2023-11-19T00:35:10;12.76;;;7.59;;
71183;SDS011;58887;51.980;4.464;2023-11-19T00:37:36;11.02;;;6.68;;
71183;SDS011;58887;51.980;4.464;2023-11-19T00:40:02;12.21;;;7.33;;
71183;SDS011;58887;51.980;4.464;2023-11-19T00:42:30;13.86;;;8.32;;
71183;SDS011;58887;51.980;4.464;2023-11-19T00:44:56;12.27;;;7.41;;
71183;SDS011;58887;51.980;4.464;2023-11-19T00:47:23;13.49;;;8.15;;
71183;SDS011;58887;51.980;4.464;2023-11-19T00:49:49;12.92;;;7.71;;
71183;SDS011;58887;51.980;4.464;2023-11-19T00:52:15;13.85;;;8.18;;
71183;SDS011;58887;51.980;4.464;2023-11-19T00:54:41;14.58;;;8.59;;
71183;SDS011;58887;51.980;4.464;2023-11-19T00:57:07;14.36;;;8.51;;
71183;SDS011;58887;51.980;4.464;2023-11-19T00:59:32;13.05;;;7.78;;
71183;SDS011;58887;51.980;4.464;2023-11-19T01:01:58;12.62;;;7.43;;
71183;SDS011;58887;51.980;4.464;2023-11-19T01:04:28;14.99;;;8.84;;
71183;SDS011;58887;51.980;4.464;2023-11-19T01:06:54;13.97;;;8.39;;
71183;SDS011;58887;51.980;4.464;2023-11-19T01:09:19;13.25;;;7.85;;
71183;SDS011;58887;51.980;4.464;2023-11-19T01:11:45;14.54;;;8.62;;
71183;SDS011;58887;51.980;4.464;2023-11-19T01:14:10;13.25;;;7.98;;
71183;SDS011;58887;51.980;4.464;2023-11-19T01:16:36;13.14;;;7.88;;
71183;SDS011;58887;51.980;4.464;2023-11-19T01:19:01;15.01;;;8.89;;
71183;SDS011;58887;51.980;4.464;2023-11-19T01:21:30;16.38;;;9.59;;
71183;SDS011;58887;51.980;4.464;2023-11-19T01:23:56;13.53;;;8.04;;
71183;SDS011;58887;51.980;4.464;2023-11-19T01:26:22;13.74;;;8.19;;
71183;SDS011;58887;51.980;4.464;2023-11-19T01:28:48;13.17;;;7.92;;
71183;SDS011;58887;51.980;4.464;2023-11-19T01:31:16;14.51;;;8.69;;
71183;SDS011;58887;51.980;4.464;2023-11-19T01:33:42;14.04;;;8.37;;
71183;SDS011;58887;51.980;4.464;2023-11-19T01:36:08;13.55;;;8.07;;
71183;SDS011;58887;51.980;4.464;2023-11-19T01:38:36;12.46;;;7.44;;
71183;SDS011;58887;51.980;4.464;2023-11-19T01:41:02;14.49;;;8.63;;
71183;SDS011;58887;51.980;4.464;2023-11-19T01:43:34;15.08;;;9.01;;
71183;SDS011;58887;51.980;4.464;2023-11-19T01:46:02;13.11;;;7.99;;
71183;SDS011;58887;51.980;4.464;2023-11-19T01:48:32;14.08;;;8.44;;
71183;SDS011;58887;51.980;4.464;2023-11-19T01:51:00;14.11;;;8.42;;
71183;SDS011;58887;51.980;4.464;2023-11-19T01:53:27;15.69;;;9.37;;
71183;SDS011;58887;51.980;4.464;2023-11-19T01:55:54;16.95;;;9.93;;
71183;SDS011;58887;51.980;4.464;2023-11-19T01:58:21;16.87;;;9.94;;
71183;SDS011;58887;51.980;4.464;2023-11-19T02:00:48;15.96;;;9.36;;
71183;SDS011;58887;51.980;4.464;2023-11-19T02:03:15;15.79;;;9.31;;
71183;SDS011;58887;51.980;4.464;2023-11-19T02:05:41;16.45;;;9.77;;
71183;SDS011;58887;51.980;4.464;2023-11-19T02:08:07;15.49;;;9.41;;
71183;SDS011;58887;51.980;4.464;2023-11-19T02:10:33;14.48;;;8.84;;
71183;SDS011;58887;51.980;4.464;2023-11-19T02:12:59;15.00;;;9.25;;
71183;SDS011;58887;51.980;4.464;2023-11-19T02:15:26;14.92;;;9.17;;
71183;SDS011;58887;51.980;4.464;2023-11-19T02:17:51;15.95;;;9.54;;
71183;SDS011;58887;51.980;4.464;2023-11-19T02:20:17;16.01;;;9.49;;
71183;SDS011;58887;51.980;4.464;2023-11-19T02:22:45;17.13;;;10.23;;
71183;SDS011;58887;51.980;4.464;2023-11-19T02:25:23;15.20;;;9.07;;
71183;SDS011;58887;51.980;4.464;2023-11-19T02:27:55;16.41;;;9.75;;
71183;SDS011;58887;51.980;4.464;2023-11-19T02:30:24;13.97;;;8.54;;
71183;SDS011;58887;51.980;4.464;2023-11-19T02:32:54;16.48;;;9.93;;
71183;SDS011;58887;51.980;4.464;2023-11-19T02:35:26;17.81;;;10.47;;
71183;SDS011;58887;51.980;4.464;2023-11-19T02:37:52;14.74;;;8.84;;
71183;SDS011;58887;51.980;4.464;2023-11-19T02:40:17;14.20;;;8.61;;
71183;SDS011;58887;51.980;4.464;2023-11-19T02:42:43;14.57;;;8.75;;
71183;SDS011;58887;51.980;4.464;2023-11-19T02:45:09;16.81;;;9.96;;
71183;SDS011;58887;51.980;4.464;2023-11-19T02:47:42;18.64;;;10.96;;
71183;SDS011;58887;51.980;4.464;2023-11-19T02:50:11;17.72;;;10.54;;
71183;SDS011;58887;51.980;4.464;2023-11-19T02:52:40;15.71;;;9.45;;
71183;SDS011;58887;51.980;4.464;2023-11-19T02:55:07;15.76;;;9.55;;
71183;SDS011;58887;51.980;4.464;2023-11-19T02:57:38;16.13;;;9.55;;
71183;SDS011;58887;51.980;4.464;2023-11-19T03:00:12;17.06;;;10.12;;
71183;SDS011;58887;51.980;4.464;2023-11-19T03:02:41;14.62;;;8.71;;
71183;SDS011;58887;51.980;4.464;2023-11-19T03:05:14;16.80;;;9.89;;
71183;SDS011;58887;51.980;4.464;2023-11-19T03:07:42;20.60;;;11.93;;
71183;SDS011;58887;51.980;4.464;2023-11-19T03:10:10;17.52;;;10.38;;
71183;SDS011;58887;51.980;4.464;2023-11-19T03:12:40;18.07;;;10.80;;
71183;SDS011;58887;51.980;4.464;2023-11-19T03:15:06;17.46;;;10.34;;
71183;SDS011;58887;51.980;4.464;2023-11-19T03:17:44;18.16;;;10.60;;
71183;SDS011;58887;51.980;4.464;2023-11-19T03:20:10;15.31;;;9.03;;
71183;SDS011;58887;51.980;4.464;2023-11-19T03:22:40;17.44;;;10.26;;
71183;SDS011;58887;51.980;4.464;2023-11-19T03:25:09;16.14;;;9.52;;
71183;SDS011;58887;51.980;4.464;2023-11-19T03:27:38;17.09;;;10.07;;
71183;SDS011;58887;51.980;4.464;2023-11-19T03:30:06;15.21;;;8.96;;
71183;SDS011;58887;51.980;4.464;2023-11-19T03:32:34;18.02;;;10.73;;
71183;SDS011;58887;51.980;4.464;2023-11-19T03:35:01;16.31;;;9.82;;
71183;SDS011;58887;51.980;4.464;2023-11-19T03:37:27;17.20;;;10.22;;
71183;SDS011;58887;51.980;4.464;2023-11-19T03:39:59;15.79;;;9.44;;
71183;SDS011;58887;51.980;4.464;2023-11-19T03:42:28;17.90;;;10.54;;
71183;SDS011;58887;51.980;4.464;2023-11-19T03:44:54;21.00;;;12.22;;
71183;SDS011;58887;51.980;4.464;2023-11-19T03:47:20;17.85;;;10.44;;
71183;SDS011;58887;51.980;4.464;2023-11-19T03:49:47;19.18;;;11.13;;
71183;SDS011;58887;51.980;4.464;2023-11-19T03:52:13;20.20;;;11.58;;
71183;SDS011;58887;51.980;4.464;2023-11-19T03:54:39;17.45;;;10.20;;
71183;SDS011;58887;51.980;4.464;2023-11-19T03:57:04;16.24;;;9.74;;
71183;SDS011;58887;51.980;4.464;2023-11-19T03:59:30;18.69;;;10.89;;
71183;SDS011;58887;51.980;4.464;2023-11-19T04:01:55;17.90;;;10.45;;
71183;SDS011;58887;51.980;4.464;2023-11-19T04:04:22;18.08;;;10.60;;
71183;SDS011;58887;51.980;4.464;2023-11-19T04:06:48;15.50;;;9.10;;
71183;SDS011;58887;51.980;4.464;2023-11-19T04:09:13;15.96;;;9.39;;
71183;SDS011;58887;51.980;4.464;2023-11-19T04:11:39;17.07;;;10.03;;
71183;SDS011;58887;51.980;4.464;2023-11-19T04:14:05;17.02;;;10.09;;
71183;SDS011;58887;51.980;4.464;2023-11-19T04:16:30;17.98;;;10.52;;
71183;SDS011;58887;51.980;4.464;2023-11-19T04:18:56;17.18;;;10.01;;
71183;SDS011;58887;51.980;4.464;2023-11-19T04:21:21;16.96;;;9.93;;
71183;SDS011;58887;51.980;4.464;2023-11-19T04:23:48;17.36;;;10.24;;
71183;SDS011;58887;51.980;4.464;2023-11-19T04:26:14;16.70;;;9.90;;
71183;SDS011;58887;51.980;4.464;2023-11-19T04:28:40;16.67;;;9.76;;
71183;SDS011;58887;51.980;4.464;2023-11-19T04:31:06;16.42;;;9.64;;
71183;SDS011;58887;51.980;4.464;2023-11-19T04:33:31;15.71;;;9.20;;
71183;SDS011;58887;51.980;4.464;2023-11-19T04:35:57;17.58;;;10.16;;
71183;SDS011;58887;51.980;4.464;2023-11-19T04:38:22;18.09;;;10.58;;
71183;SDS011;58887;51.980;4.464;2023-11-19T04:40:48;15.85;;;9.37;;
71183;SDS011;58887;51.980;4.464;2023-11-19T04:43:13;15.44;;;9.13;;
71183;SDS011;58887;51.980;4.464;2023-11-19T04:45:38;17.36;;;10.02;;
71183;SDS011;58887;51.980;4.464;2023-11-19T04:48:05;18.36;;;10.63;;
71183;SDS011;58887;51.980;4.464;2023-11-19T04:50:30;17.39;;;10.00;;
71183;SDS011;58887;51.980;4.464;2023-11-19T04:52:56;16.96;;;9.72;;
71183;SDS011;58887;51.980;4.464;2023-11-19T04:55:21;17.84;;;10.29;;
71183;SDS011;58887;51.980;4.464;2023-11-19T04:57:47;17.92;;;10.39;;
71183;SDS011;58887;51.980;4.464;2023-11-19T05:00:13;18.37;;;10.57;;
71183;SDS011;58887;51.980;4.464;2023-11-19T05:02:38;19.59;;;11.22;;
71183;SDS011;58887;51.980;4.464;2023-11-19T05:05:04;16.53;;;9.57;;
71183;SDS011;58887;51.980;4.464;2023-11-19T05:07:30;17.18;;;10.02;;
71183;SDS011;58887;51.980;4.464;2023-11-19T05:09:56;17.34;;;10.15;;
71183;SDS011;58887;51.980;4.464;2023-11-19T05:12:21;19.14;;;11.07;;
71183;SDS011;58887;51.980;4.464;2023-11-19T05:14:50;16.81;;;9.85;;
71183;SDS011;58887;51.980;4.464;2023-11-19T05:17:16;17.57;;;10.34;;
71183;SDS011;58887;51.980;4.464;2023-11-19T05:19:43;18.17;;;10.74;;
71183;SDS011;58887;51.980;4.464;2023-11-19T05:22:08;17.58;;;10.52;;
71183;SDS011;58887;51.980;4.464;2023-11-19T05:24:34;15.94;;;9.44;;
71183;SDS011;58887;51.980;4.464;2023-11-19T05:27:01;17.08;;;10.00;;
71183;SDS011;58887;51.980;4.464;2023-11-19T05:29:27;18.26;;;10.76;;
71183;SDS011;58887;51.980;4.464;2023-11-19T05:31:52;16.68;;;9.67;;
71183;SDS011;58887;51.980;4.464;2023-11-19T05:34:19;18.58;;;10.68;;
71183;SDS011;58887;51.980;4.464;2023-11-19T05:36:45;19.74;;;11.42;;
71183;SDS011;58887;51.980;4.464;2023-11-19T05:39:11;19.74;;;11.47;;
71183;SDS011;58887;51.980;4.464;2023-11-19T05:41:36;17.81;;;10.27;;
71183;SDS011;58887;51.980;4.464;2023-11-19T05:44:02;17.19;;;9.91;;
71183;SDS011;58887;51.980;4.464;2023-11-19T05:46:27;16.97;;;9.96;;
71183;SDS011;58887;51.980;4.464;2023-11-19T05:48:53;16.46;;;9.63;;
71183;SDS011;58887;51.980;4.464;2023-11-19T05:51:18;16.68;;;9.67;;
71183;SDS011;58887;51.980;4.464;2023-11-19T05:53:44;17.01;;;9.93;;
71183;SDS011;58887;51.980;4.464;2023-11-19T05:56:15;15.11;;;8.94;;
71183;SDS011;58887;51.980;4.464;2023-11-19T05:58:41;16.08;;;9.47;;
71183;SDS011;58887;51.980;4.464;2023-11-19T06:01:06;16.71;;;9.67;;
71183;SDS011;58887;51.980;4.464;2023-11-19T06:03:32;18.63;;;10.73;;
71183;SDS011;58887;51.980;4.464;2023-11-19T06:05:58;16.91;;;9.95;;
71183;SDS011;58887;51.980;4.464;2023-11-19T06:08:23;15.55;;;9.25;;
71183;SDS011;58887;51.980;4.464;2023-11-19T06:10:49;16.47;;;9.70;;
71183;SDS011;58887;51.980;4.464;2023-11-19T06:13:15;15.11;;;8.96;;
71183;SDS011;58887;51.980;4.464;2023-11-19T06:15:43;13.97;;;8.25;;
71183;SDS011;58887;51.980;4.464;2023-11-19T06:18:09;14.80;;;8.71;;
71183;SDS011;58887;51.980;4.464;2023-11-19T06:20:37;16.68;;;9.77;;
71183;SDS011;58887;51.980;4.464;2023-11-19T06:23:02;16.39;;;9.49;;
71183;SDS011;58887;51.980;4.464;2023-11-19T06:25:28;17.12;;;9.95;;
71183;SDS011;58887;51.980;4.464;2023-11-19T06:27:53;16.46;;;9.63;;
71183;SDS011;58887;51.980;4.464;2023-11-19T06:30:19;16.01;;;9.35;;
71183;SDS011;58887;51.980;4.464;2023-11-19T06:32:45;16.22;;;9.52;;
71183;SDS011;58887;51.980;4.464;2023-11-19T06:35:12;16.43;;;9.69;;
71183;SDS011;58887;51.980;4.464;2023-11-19T06:37:39;16.19;;;9.46;;
71183;SDS011;58887;51.980;4.464;2023-11-19T06:40:05;17.83;;;10.30;;
71183;SDS011;58887;51.980;4.464;2023-11-19T06:42:31;14.26;;;8.37;;
71183;SDS011;58887;51.980;4.464;2023-11-19T06:44:57;16.45;;;9.75;;
71183;SDS011;58887;51.980;4.464;2023-11-19T06:47:26;16.15;;;9.42;;
71183;SDS011;58887;51.980;4.464;2023-11-19T06:49:52;17.30;;;9.99;;
71183;SDS011;58887;51.980;4.464;2023-11-19T06:52:18;15.40;;;8.96;;
71183;SDS011;58887;51.980;4.464;2023-11-19T06:54:44;15.66;;;9.12;;
71183;SDS011;58887;51.980;4.464;2023-11-19T06:57:10;17.76;;;10.31;;
71183;SDS011;58887;51.980;4.464;2023-11-19T06:59:36;16.43;;;9.56;;
71183;SDS011;58887;51.980;4.464;2023-11-19T07:02:02;15.87;;;9.41;;
71183;SDS011;58887;51.980;4.464;2023-11-19T07:04:28;15.58;;;9.19;;
71183;SDS011;58887;51.980;4.464;2023-11-19T07:06:53;15.51;;;9.00;;
71183;SDS011;58887;51.980;4.464;2023-11-19T07:09:19;17.79;;;10.29;;
71183;SDS011;58887;51.980;4.464;2023-11-19T07:11:44;17.15;;;9.99;;
71183;SDS011;58887;51.980;4.464;2023-11-19T07:14:10;17.71;;;10.29;;
71183;SDS011;58887;51.980;4.464;2023-11-19T07:16:37;18.60;;;10.64;;
71183;SDS011;58887;51.980;4.464;2023-11-19T07:19:06;18.44;;;10.73;;
71183;SDS011;58887;51.980;4.464;2023-11-19T07:21:32;17.39;;;10.17;;
71183;SDS011;58887;51.980;4.464;2023-11-19T07:23:58;17.41;;;10.06;;
71183;SDS011;58887;51.980;4.464;2023-11-19T07:26:24;17.21;;;9.86;;
71183;SDS011;58887;51.980;4.464;2023-11-19T07:28:50;18.64;;;10.67;;
71183;SDS011;58887;51.980;4.464;2023-11-19T07:31:16;19.93;;;11.47;;
71183;SDS011;58887;51.980;4.464;2023-11-19T07:33:44;19.15;;;11.02;;
71183;SDS011;58887;51.980;4.464;2023-11-19T07:36:11;18.34;;;10.57;;
71183;SDS011;58887;51.980;4.464;2023-11-19T07:38:37;15.52;;;9.18;;
71183;SDS011;58887;51.980;4.464;2023-11-19T07:41:04;15.75;;;9.25;;
71183;SDS011;58887;51.980;4.464;2023-11-19T07:43:30;16.39;;;9.60;;
71183;SDS011;58887;51.980;4.464;2023-11-19T07:45:56;16.20;;;9.65;;
71183;SDS011;58887;51.980;4.464;2023-11-19T07:48:26;15.99;;;9.43;;
71183;SDS011;58887;51.980;4.464;2023-11-19T07:50:52;16.29;;;9.61;;
71183;SDS011;58887;51.980;4.464;2023-11-19T07:53:19;17.84;;;10.30;;
71183;SDS011;58887;51.980;4.464;2023-11-19T07:55:45;16.62;;;9.72;;
71183;SDS011;58887;51.980;4.464;2023-11-19T07:58:11;17.17;;;10.21;;
71183;SDS011;58887;51.980;4.464;2023-11-19T08:00:37;15.00;;;9.02;;
71183;SDS011;58887;51.980;4.464;2023-11-19T08:03:03;14.38;;;8.49;;
71183;SDS011;58887;51.980;4.464;2023-11-19T08:05:30;16.41;;;9.63;;
71183;SDS011;58887;51.980;4.464;2023-11-19T08:07:56;16.58;;;9.70;;
71183;SDS011;58887;51.980;4.464;2023-11-19T08:10:21;16.36;;;9.64;;
71183;SDS011;58887;51.980;4.464;2023-11-19T08:12:48;16.56;;;9.75;;
71183;SDS011;58887;51.980;4.464;2023-11-19T08:15:14;15.87;;;9.34;;
71183;SDS011;58887;51.980;4.464;2023-11-19T08:17:41;16.47;;;9.61;;
71183;SDS011;58887;51.980;4.464;2023-11-19T08:20:08;16.97;;;9.80;;
71183;SDS011;58887;51.980;4.464;2023-11-19T08:22:38;18.59;;;10.68;;
71183;SDS011;58887;51.980;4.464;2023-11-19T08:25:05;18.05;;;10.40;;
71183;SDS011;58887;51.980;4.464;2023-11-19T08:27:31;16.96;;;9.88;;
71183;SDS011;58887;51.980;4.464;2023-11-19T08:29:56;15.63;;;9.30;;
71183;SDS011;58887;51.980;4.464;2023-11-19T08:32:25;15.33;;;8.92;;
71183;SDS011;58887;51.980;4.464;2023-11-19T08:34:52;17.52;;;10.06;;
71183;SDS011;58887;51.980;4.464;2023-11-19T08:37:18;16.43;;;9.40;;
71183;SDS011;58887;51.980;4.464;2023-11-19T08:39:46;17.80;;;10.22;;
71183;SDS011;58887;51.980;4.464;2023-11-19T08:42:12;17.41;;;10.01;;
71183;SDS011;58887;51.980;4.464;2023-11-19T08:44:38;16.84;;;9.79;;
71183;SDS011;58887;51.980;4.464;2023-11-19T08:47:04;15.97;;;9.30;;
71183;SDS011;58887;51.980;4.464;2023-11-19T08:49:29;16.13;;;9.48;;
71183;SDS011;58887;51.980;4.464;2023-11-19T08:51:55;15.62;;;9.08;;
71183;SDS011;58887;51.980;4.464;2023-11-19T08:54:20;16.95;;;9.79;;
71183;SDS011;58887;51.980;4.464;2023-11-19T08:56:48;15.30;;;8.93;;
71183;SDS011;58887;51.980;4.464;2023-11-19T08:59:13;16.94;;;9.85;;
71183;SDS011;58887;51.980;4.464;2023-11-19T09:01:40;16.46;;;9.67;;
71183;SDS011;58887;51.980;4.464;2023-11-19T09:04:06;16.09;;;9.45;;
71183;SDS011;58887;51.980;4.464;2023-11-19T09:06:31;15.34;;;8.90;;
71183;SDS011;58887;51.980;4.464;2023-11-19T09:08:57;17.35;;;9.97;;
71183;SDS011;58887;51.980;4.464;2023-11-19T09:11:28;17.49;;;10.13;;
71183;SDS011;58887;51.980;4.464;2023-11-19T09:13:55;16.67;;;9.71;;
71183;SDS011;58887;51.980;4.464;2023-11-19T09:16:20;18.01;;;10.40;;
71183;SDS011;58887;51.980;4.464;2023-11-19T09:18:46;17.70;;;10.35;;
71183;SDS011;58887;51.980;4.464;2023-11-19T09:21:12;15.94;;;9.41;;
71183;SDS011;58887;51.980;4.464;2023-11-19T09:23:37;15.08;;;8.97;;
71183;SDS011;58887;51.980;4.464;2023-11-19T09:26:10;15.60;;;9.24;;
71183;SDS011;58887;51.980;4.464;2023-11-19T09:28:36;14.87;;;8.84;;
71183;SDS011;58887;51.980;4.464;2023-11-19T09:31:01;13.43;;;8.01;;
71183;SDS011;58887;51.980;4.464;2023-11-19T09:33:29;14.64;;;8.73;;
71183;SDS011;58887;51.980;4.464;2023-11-19T09:35:56;15.63;;;9.17;;
71183;SDS011;58887;51.980;4.464;2023-11-19T09:38:21;15.09;;;8.79;;
71183;SDS011;58887;51.980;4.464;2023-11-19T09:40:53;16.06;;;9.18;;
71183;SDS011;58887;51.980;4.464;2023-11-19T09:43:18;16.06;;;9.20;;
71183;SDS011;58887;51.980;4.464;2023-11-19T09:45:51;15.48;;;8.88;;
71183;SDS011;58887;51.980;4.464;2023-11-19T09:48:18;15.70;;;9.11;;
71183;SDS011;58887;51.980;4.464;2023-11-19T09:50:46;15.85;;;9.16;;
71183;SDS011;58887;51.980;4.464;2023-11-19T09:53:12;12.78;;;7.46;;
71183;SDS011;58887;51.980;4.464;2023-11-19T09:55:38;13.27;;;7.82;;
71183;SDS011;58887;51.980;4.464;2023-11-19T09:58:04;14.65;;;8.48;;
71183;SDS011;58887;51.980;4.464;2023-11-19T10:00:32;14.43;;;8.43;;
71183;SDS011;58887;51.980;4.464;2023-11-19T10:02:57;14.69;;;8.46;;
71183;SDS011;58887;51.980;4.464;2023-11-19T10:05:24;13.69;;;7.91;;
71183;SDS011;58887;51.980;4.464;2023-11-19T10:07:51;13.56;;;7.86;;
71183;SDS011;58887;51.980;4.464;2023-11-19T10:10:17;16.24;;;9.35;;
71183;SDS011;58887;51.980;4.464;2023-11-19T10:12:47;14.22;;;8.24;;
71183;SDS011;58887;51.980;4.464;2023-11-19T10:15:22;13.96;;;8.23;;
71183;SDS011;58887;51.980;4.464;2023-11-19T10:17:51;14.16;;;8.29;;
71183;SDS011;58887;51.980;4.464;2023-11-19T10:20:20;12.54;;;7.31;;
71183;SDS011;58887;51.980;4.464;2023-11-19T10:22:46;13.29;;;7.74;;
71183;SDS011;58887;51.980;4.464;2023-11-19T10:25:26;14.85;;;8.74;;
71183;SDS011;58887;51.980;4.464;2023-11-19T10:27:53;13.52;;;8.06;;
71183;SDS011;58887;51.980;4.464;2023-11-19T10:30:20;11.34;;;6.79;;
71183;SDS011;58887;51.980;4.464;2023-11-19T10:35:32;12.15;;;7.78;;
71183;SDS011;58887;51.980;4.464;2023-11-19T10:38:02;11.08;;;7.17;;
71183;SDS011;58887;51.980;4.464;2023-11-19T10:40:40;11.39;;;7.51;;
71183;SDS011;58887;51.980;4.464;2023-11-19T10:43:06;12.38;;;8.16;;
71183;SDS011;58887;51.980;4.464;2023-11-19T10:45:33;11.54;;;7.58;;
71183;SDS011;58887;51.980;4.464;2023-11-19T10:47:59;9.91;;;6.54;;
71183;SDS011;58887;51.980;4.464;2023-11-19T10:50:25;10.94;;;7.48;;
71183;SDS011;58887;51.980;4.464;2023-11-19T10:52:55;9.83;;;6.66;;
71183;SDS011;58887;51.980;4.464;2023-11-19T10:55:28;10.09;;;6.40;;
71183;SDS011;58887;51.980;4.464;2023-11-19T10:58:02;13.01;;;8.01;;
71183;SDS011;58887;51.980;4.464;2023-11-19T11:00:45;14.19;;;8.48;;
71183;SDS011;58887;51.980;4.464;2023-11-19T11:03:19;14.34;;;8.60;;
71183;SDS011;58887;51.980;4.464;2023-11-19T11:05:48;15.78;;;9.31;;
71183;SDS011;58887;51.980;4.464;2023-11-19T11:08:15;17.93;;;10.48;;
71183;SDS011;58887;51.980;4.464;2023-11-19T11:10:43;17.45;;;10.10;;
71183;SDS011;58887;51.980;4.464;2023-11-19T11:13:16;17.07;;;9.89;;
71183;SDS011;58887;51.980;4.464;2023-11-19T11:15:43;15.34;;;8.97;;
71183;SDS011;58887;51.980;4.464;2023-11-19T11:18:12;15.83;;;9.44;;
71183;SDS011;58887;51.980;4.464;2023-11-19T11:20:40;14.90;;;8.84;;
71183;SDS011;58887;51.980;4.464;2023-11-19T11:26:13;14.49;;;8.66;;
71183;SDS011;58887;51.980;4.464;2023-11-19T11:29:59;14.58;;;8.69;;
71183;SDS011;58887;51.980;4.464;2023-11-19T11:37:36;12.13;;;7.24;;
71183;SDS011;58887;51.980;4.464;2023-11-19T11:40:17;13.22;;;7.86;;
71183;SDS011;58887;51.980;4.464;2023-11-19T11:42:48;13.69;;;8.15;;
71183;SDS011;58887;51.980;4.464;2023-11-19T11:45:16;12.23;;;7.45;;
71183;SDS011;58887;51.980;4.464;2023-11-19T11:50:18;15.44;;;9.93;;
71183;SDS011;58887;51.980;4.464;2023-11-19T11:56:04;8.38;;;5.53;;
71183;SDS011;58887;51.980;4.464;2023-11-19T11:58:35;9.76;;;6.22;;
71183;SDS011;58887;51.980;4.464;2023-11-19T12:01:03;10.48;;;6.43;;
71183;SDS011;58887;51.980;4.464;2023-11-19T12:03:31;10.64;;;6.47;;
71183;SDS011;58887;51.980;4.464;2023-11-19T12:05:58;10.84;;;6.65;;
71183;SDS011;58887;51.980;4.464;2023-11-19T12:08:28;10.72;;;6.56;;
71183;SDS011;58887;51.980;4.464;2023-11-19T12:10:56;10.36;;;6.33;;
71183;SDS011;58887;51.980;4.464;2023-11-19T12:13:23;11.54;;;7.03;;
71183;SDS011;58887;51.980;4.464;2023-11-19T12:18:31;12.88;;;7.65;;
71183;SDS011;58887;51.980;4.464;2023-11-19T12:20:57;11.48;;;6.90;;
71183;SDS011;58887;51.980;4.464;2023-11-19T12:23:30;13.54;;;8.07;;
71183;SDS011;58887;51.980;4.464;2023-11-19T12:26:02;12.07;;;7.08;;
71183;SDS011;58887;51.980;4.464;2023-11-19T12:28:28;13.19;;;7.77;;
71183;SDS011;58887;51.980;4.464;2023-11-19T12:30:54;14.18;;;8.44;;
71183;SDS011;58887;51.980;4.464;2023-11-19T12:33:35;13.26;;;7.87;;
71183;SDS011;58887;51.980;4.464;2023-11-19T12:36:03;13.29;;;7.96;;
71183;SDS011;58887;51.980;4.464;2023-11-19T12:38:30;15.14;;;8.86;;
71183;SDS011;58887;51.980;4.464;2023-11-19T12:41:13;14.51;;;8.42;;
71183;SDS011;58887;51.980;4.464;2023-11-19T12:43:44;16.38;;;9.40;;
71183;SDS011;58887;51.980;4.464;2023-11-19T12:46:28;16.58;;;9.63;;
71183;SDS011;58887;51.980;4.464;2023-11-19T12:49:02;14.66;;;8.58;;
71183;SDS011;58887;51.980;4.464;2023-11-19T12:51:31;14.17;;;8.26;;
71183;SDS011;58887;51.980;4.464;2023-11-19T12:53:57;14.07;;;8.12;;
71183;SDS011;58887;51.980;4.464;2023-11-19T12:56:23;14.80;;;8.55;;
71183;SDS011;58887;51.980;4.464;2023-11-19T12:58:49;12.88;;;7.58;;
71183;SDS011;58887;51.980;4.464;2023-11-19T13:01:16;13.02;;;7.65;;
71183;SDS011;58887;51.980;4.464;2023-11-19T13:03:44;14.04;;;8.27;;
71183;SDS011;58887;51.980;4.464;2023-11-19T13:06:13;13.71;;;8.17;;
71183;SDS011;58887;51.980;4.464;2023-11-19T13:08:48;16.99;;;10.47;;
71183;SDS011;58887;51.980;4.464;2023-11-19T13:11:39;19.28;;;13.92;;
71183;SDS011;58887;51.980;4.464;2023-11-19T13:17:21;12.91;;;7.86;;
71183;SDS011;58887;51.980;4.464;2023-11-19T13:22:37;13.87;;;8.26;;
71183;SDS011;58887;51.980;4.464;2023-11-19T13:27:53;12.48;;;7.54;;
71183;SDS011;58887;51.980;4.464;2023-11-19T13:32:59;14.52;;;8.45;;
71183;SDS011;58887;51.980;4.464;2023-11-19T13:35:29;16.91;;;10.52;;
71183;SDS011;58887;51.980;4.464;2023-11-19T13:40:26;13.68;;;8.19;;
71183;SDS011;58887;51.980;4.464;2023-11-19T13:42:54;13.75;;;8.22;;
71183;SDS011;58887;51.980;4.464;2023-11-19T13:45:22;13.31;;;8.05;;
71183;SDS011;58887;51.980;4.464;2023-11-19T13:47:51;12.62;;;8.10;;
71183;SDS011;58887;51.980;4.464;2023-11-19T13:50:24;11.03;;;6.80;;
71183;SDS011;58887;51.980;4.464;2023-11-19T13:52:50;11.25;;;6.75;;
71183;SDS011;58887;51.980;4.464;2023-11-19T13:55:16;11.41;;;6.78;;
71183;SDS011;58887;51.980;4.464;2023-11-19T13:57:42;14.99;;;9.22;;
71183;SDS011;58887;51.980;4.464;2023-11-19T14:00:08;11.56;;;7.10;;
71183;SDS011;58887;51.980;4.464;2023-11-19T14:02:40;13.53;;;8.03;;
71183;SDS011;58887;51.980;4.464;2023-11-19T14:05:07;13.50;;;7.89;;
71183;SDS011;58887;51.980;4.464;2023-11-19T14:07:35;14.76;;;8.67;;
71183;SDS011;58887;51.980;4.464;2023-11-19T14:10:01;14.24;;;8.40;;
71183;SDS011;58887;51.980;4.464;2023-11-19T14:12:26;14.34;;;8.42;;
71183;SDS011;58887;51.980;4.464;2023-11-19T14:14:53;12.84;;;7.59;;
71183;SDS011;58887;51.980;4.464;2023-11-19T14:17:19;15.13;;;8.93;;
71183;SDS011;58887;51.980;4.464;2023-11-19T14:19:45;15.05;;;8.84;;
71183;SDS011;58887;51.980;4.464;2023-11-19T14:22:11;13.82;;;8.05;;
71183;SDS011;58887;51.980;4.464;2023-11-19T14:24:37;14.76;;;8.57;;
71183;SDS011;58887;51.980;4.464;2023-11-19T14:27:04;15.91;;;9.29;;
71183;SDS011;58887;51.980;4.464;2023-11-19T14:29:30;13.99;;;8.23;;
71183;SDS011;58887;51.980;4.464;2023-11-19T14:31:57;12.25;;;7.21;;
71183;SDS011;58887;51.980;4.464;2023-11-19T14:34:24;13.83;;;8.23;;
71183;SDS011;58887;51.980;4.464;2023-11-19T14:36:52;14.01;;;8.31;;
71183;SDS011;58887;51.980;4.464;2023-11-19T14:39:18;13.23;;;7.76;;
71183;SDS011;58887;51.980;4.464;2023-11-19T14:41:44;12.91;;;7.54;;
71183;SDS011;58887;51.980;4.464;2023-11-19T14:46:56;13.23;;;7.79;;
71183;SDS011;58887;51.980;4.464;2023-11-19T14:49:22;12.28;;;7.21;;
71183;SDS011;58887;51.980;4.464;2023-11-19T14:51:49;16.10;;;10.61;;
71183;SDS011;58887;51.980;4.464;2023-11-19T14:54:15;11.37;;;8.62;;
71183;SDS011;58887;51.980;4.464;2023-11-19T14:56:41;8.49;;;6.00;;
71183;SDS011;58887;51.980;4.464;2023-11-19T14:59:07;10.89;;;7.07;;
71183;SDS011;58887;51.980;4.464;2023-11-19T15:01:33;12.47;;;7.96;;
71183;SDS011;58887;51.980;4.464;2023-11-19T15:03:58;12.03;;;7.52;;
71183;SDS011;58887;51.980;4.464;2023-11-19T15:06:24;13.38;;;8.22;;
71183;SDS011;58887;51.980;4.464;2023-11-19T15:08:55;12.56;;;7.50;;